Time;durP1;ratioP1;P1;durP2;ratioP2;P2;SDS_P1;SDS_P2;PMS_P1;PMS_P2;Temp;Humidity;BMP_temperature;BMP_pressure;BME280_temperature;BME280_humidity;BME280_pressure;Samples;Min_cycle;Max_cycle;Signal;HPM_P1;HPM_P2
2023/04/16 00:01:21;;;;;;;;;4.75;2.75;;;;;9.55;77.25;102257.34;4940345;28;10787;-66
2023/04/16 00:03:47;;;;;;;;;2.50;1.25;;;;;9.59;77.64;102261.41;4932536;29;10799;-66
2023/04/16 00:06:14;;;;;;;;;3.00;3.00;;;;;9.53;77.64;102256.66;4940847;28;10707;-66
2023/04/16 00:08:42;;;;;;;;;3.25;3.00;;;;;9.56;77.83;102258.19;4952614;28;11487;-65
2023/04/16 00:11:08;;;;;;;;;2.25;2.25;;;;;9.51;77.56;102257.81;4952578;28;10680;-65
2023/04/16 00:13:35;;;;;;;;;4.75;2.25;;;;;9.41;77.75;102256.03;4950259;28;10827;-66
2023/04/16 00:16:02;;;;;;;;;2.50;2.50;;;;;9.32;78.19;102256.97;4952255;28;10665;-66
2023/04/16 00:18:28;;;;;;;;;7.50;5.50;;;;;9.29;77.98;102257.25;4952507;28;10750;-66
2023/04/16 00:20:55;;;;;;;;;3.50;3.50;;;;;9.33;79.30;102255.13;4952515;28;10776;-66
2023/04/16 00:23:23;;;;;;;;;4.50;3.50;;;;;9.39;78.44;102244.59;4941533;28;10910;-65
2023/04/16 00:25:50;;;;;;;;;2.00;2.00;;;;;9.40;78.77;102242.78;4933093;29;10817;-66
2023/04/16 00:28:17;;;;;;;;;4.50;4.00;;;;;9.45;78.31;102242.31;4939915;28;10705;-65
2023/04/16 00:30:43;;;;;;;;;5.50;5.50;;;;;9.43;78.54;102242.44;4952272;28;11495;-65
2023/04/16 00:33:10;;;;;;;;;8.00;6.00;;;;;9.38;78.25;102245.59;4950627;28;10908;-65
2023/04/16 00:35:36;;;;;;;;;4.50;4.00;;;;;9.33;78.38;102245.22;4946178;28;11589;-65
2023/04/16 00:38:03;;;;;;;;;4.00;4.00;;;;;9.32;78.35;102237.31;4950884;28;10792;-64
2023/04/16 00:40:29;;;;;;;;;4.50;4.50;;;;;9.32;78.10;102238.16;4950914;28;10880;-65
2023/04/16 00:42:56;;;;;;;;;5.50;5.00;;;;;9.34;78.73;102238.84;4942451;28;10814;-65
2023/04/16 00:45:22;;;;;;;;;2.00;2.00;;;;;9.40;78.36;102243.63;4955276;28;10787;-65
2023/04/16 00:47:49;;;;;;;;;4.75;4.75;;;;;9.41;78.01;102239.06;4933144;29;10896;-65
2023/04/16 00:50:18;;;;;;;;;7.25;4.75;;;;;9.33;78.26;102242.53;4932819;29;10709;-65
2023/04/16 00:52:47;;;;;;;;;7.50;6.75;;;;;9.30;78.36;102247.34;4932940;29;10925;-65
2023/04/16 00:55:16;;;;;;;;;5.00;5.00;;;;;9.27;78.56;102248.47;4931309;29;10950;-65
2023/04/16 00:57:43;;;;;;;;;3.50;2.75;;;;;9.24;78.38;102246.13;4931669;29;10862;-65
2023/04/16 01:00:11;;;;;;;;;7.00;5.00;;;;;9.18;79.08;102246.72;4933809;29;11021;-65
2023/04/16 01:02:38;;;;;;;;;5.75;4.75;;;;;9.19;78.86;102244.88;4935873;29;10786;-65
2023/04/16 01:05:05;;;;;;;;;6.00;6.00;;;;;9.19;79.10;102250.25;4935678;28;10916;-65
2023/04/16 01:07:32;;;;;;;;;6.75;6.25;;;;;9.15;79.43;102250.56;4947423;29;10946;-64
2023/04/16 01:09:58;;;;;;;;;5.00;5.00;;;;;9.20;79.57;102251.97;4932637;29;10950;-64
2023/04/16 01:12:25;;;;;;;;;5.75;5.75;;;;;9.25;79.31;102247.81;4932656;29;10861;-65
2023/04/16 01:14:51;;;;;;;;;4.50;4.25;;;;;9.19;78.62;102251.09;4935816;29;10940;-64
2023/04/16 01:17:18;;;;;;;;;4.75;4.00;;;;;9.21;79.28;102254.47;4951759;28;10846;-66
2023/04/16 01:19:44;;;;;;;;;8.00;7.25;;;;;9.22;79.49;102253.47;4934340;28;11016;-66
2023/04/16 01:22:11;;;;;;;;;4.75;4.75;;;;;9.24;79.19;102258.72;4932755;29;10943;-65
2023/04/16 01:24:39;;;;;;;;;4.75;4.75;;;;;9.26;78.91;102254.03;4932398;28;10940;-66
2023/04/16 01:27:08;;;;;;;;;6.00;4.00;;;;;9.26;78.69;102254.88;4931422;29;10856;-65
2023/04/16 01:29:35;;;;;;;;;8.00;5.00;;;;;9.20;79.29;102260.00;4932710;29;11051;-65
2023/04/16 01:32:02;;;;;;;;;5.00;5.00;;;;;9.19;78.36;102253.78;4932730;29;10943;-66
2023/04/16 01:34:34;;;;;;;;;6.50;4.25;;;;;9.15;78.47;102260.44;4956792;28;10846;-66
2023/04/16 01:37:02;;;;;;;;;3.00;3.00;;;;;9.11;79.20;102261.72;4950841;28;11729;-66
2023/04/16 01:39:29;;;;;;;;;5.50;5.00;;;;;9.16;80.02;102254.09;4933993;29;10798;-66
2023/04/16 01:41:56;;;;;;;;;4.75;2.00;;;;;9.24;79.18;102253.34;4935020;29;10865;-66
2023/04/16 01:44:22;;;;;;;;;3.00;1.75;;;;;9.30;79.76;102253.56;4950635;28;10703;-66
2023/04/16 01:46:49;;;;;;;;;10.00;8.00;;;;;9.29;78.60;102254.56;4952139;28;10765;-66
2023/04/16 01:49:15;;;;;;;;;6.00;4.25;;;;;9.23;78.36;102252.47;4955022;28;10863;-66
2023/04/16 01:51:42;;;;;;;;;5.00;5.00;;;;;9.12;78.87;102256.22;4944809;28;10742;-66
2023/04/16 01:54:09;;;;;;;;;5.25;4.00;;;;;9.08;79.51;102259.38;4935850;29;10880;-66
2023/04/16 01:56:35;;;;;;;;;2.50;2.50;;;;;9.10;79.33;102254.69;4936212;29;10601;-66
2023/04/16 01:59:02;;;;;;;;;2.50;2.50;;;;;9.13;79.32;102254.38;4939010;28;10640;-66
2023/04/16 02:01:34;;;;;;;;;6.00;5.00;;;;;9.14;79.81;102258.75;4939855;28;10636;-66
2023/04/16 02:04:02;;;;;;;;;5.75;5.00;;;;;9.16;79.43;102254.09;4953445;28;10977;-66
2023/04/16 02:06:29;;;;;;;;;5.50;3.00;;;;;9.16;79.49;102252.25;4969622;28;10778;-66
2023/04/16 02:08:55;;;;;;;;;4.25;4.25;;;;;9.08;78.93;102251.31;4954667;28;10679;-66
2023/04/16 02:11:23;;;;;;;;;6.00;4.50;;;;;9.04;79.09;102261.50;4954757;28;10698;-66
2023/04/16 02:13:50;;;;;;;;;6.75;5.00;;;;;9.05;80.06;102262.34;4939903;29;11753;-64
2023/04/16 02:16:17;;;;;;;;;1.00;1.00;;;;;9.15;79.81;102264.00;4958082;28;10825;-65
2023/04/16 02:18:49;;;;;;;;;2.00;2.00;;;;;9.13;79.47;102259.75;4953199;28;10996;-65
2023/04/16 02:21:19;;;;;;;;;7.75;5.00;;;;;9.11;79.20;102265.25;4953260;28;11008;-65
2023/04/16 02:23:46;;;;;;;;;5.00;4.00;;;;;9.05;79.26;102265.88;4953231;28;11571;-65
2023/04/16 02:26:13;;;;;;;;;4.00;4.00;;;;;9.07;80.25;102260.34;4953257;28;10976;-65
2023/04/16 02:28:40;;;;;;;;;2.50;2.50;;;;;9.15;79.94;102263.13;4951542;28;10850;-65
2023/04/16 02:31:09;;;;;;;;;4.25;2.00;;;;;9.16;80.12;102267.53;4955204;28;10877;-65
2023/04/16 02:33:40;;;;;;;;;2.50;2.50;;;;;9.16;79.83;102262.16;4949734;29;10754;-65
2023/04/16 02:36:09;;;;;;;;;6.00;5.00;;;;;9.14;79.13;102274.88;4934911;29;10952;-65
2023/04/16 02:38:36;;;;;;;;;5.00;5.00;;;;;9.13;79.63;102275.88;4935037;29;10947;-65
2023/04/16 02:41:02;;;;;;;;;4.75;4.75;;;;;9.13;79.56;102273.19;4933614;29;11024;-66
2023/04/16 02:43:29;;;;;;;;;6.00;6.00;;;;;9.15;79.45;102276.56;4949629;29;10937;-65
2023/04/16 02:45:58;;;;;;;;;5.00;4.25;;;;;9.16;80.06;102276.44;4953699;28;11105;-66
2023/04/16 02:48:24;;;;;;;;;8.25;3.50;;;;;9.22;80.02;102269.59;4951533;28;10913;-65
2023/04/16 02:50:51;;;;;;;;;8.00;6.00;;;;;9.18;79.11;102270.88;4952029;28;10978;-65
2023/04/16 02:53:18;;;;;;;;;8.25;5.50;;;;;9.21;79.61;102273.28;4954047;28;12011;-66
2023/04/16 02:55:54;;;;;;;;;8.00;8.00;;;;;9.10;79.70;102281.53;4953743;28;10910;-66
2023/04/16 02:58:22;;;;;;;;;9.00;8.75;;;;;9.04;79.73;102276.78;4949232;28;11055;-66
2023/04/16 03:00:50;;;;;;;;;9.50;5.75;;;;;9.02;80.22;102273.38;4936556;28;11011;-65
2023/04/16 03:03:17;;;;;;;;;7.00;6.50;;;;;9.08;80.22;102283.53;4933389;29;11136;-66
2023/04/16 03:05:43;;;;;;;;;9.00;9.00;;;;;9.05;79.68;102284.69;4940909;28;11006;-66
2023/04/16 03:08:10;;;;;;;;;9.25;8.50;;;;;9.01;79.60;102285.13;4952585;28;11088;-65
2023/04/16 03:10:36;;;;;;;;;10.50;8.75;;;;;8.99;80.81;102289.78;4942316;28;11185;-65
2023/04/16 03:13:03;;;;;;;;;11.75;10.00;;;;;8.94;80.56;102286.72;4934987;29;11195;-65
2023/04/16 03:15:30;;;;;;;;;11.75;7.25;;;;;9.00;80.86;102296.88;4938184;28;10994;-65
2023/04/16 03:17:56;;;;;;;;;8.50;8.50;;;;;9.06;80.40;102297.09;4933633;29;11013;-64
2023/04/16 03:20:23;;;;;;;;;9.00;8.00;;;;;9.09;80.36;102301.34;4934649;29;10998;-65
2023/04/16 03:22:51;;;;;;;;;10.50;10.25;;;;;9.08;80.45;102297.81;4934727;29;11016;-65
2023/04/16 03:25:18;;;;;;;;;12.50;10.50;;;;;9.12;80.81;102293.00;4943573;28;11210;-66
2023/04/16 03:27:44;;;;;;;;;16.75;13.75;;;;;9.09;79.58;102298.66;4948147;28;11143;-65
2023/04/16 03:30:13;;;;;;;;;10.50;10.00;;;;;9.00;80.59;102289.66;4948003;28;11541;-66
2023/04/16 03:32:40;;;;;;;;;12.00;10.75;;;;;9.02;80.78;102293.03;4967282;28;11930;-66
2023/04/16 03:35:07;;;;;;;;;13.50;10.50;;;;;9.03;80.17;102293.88;4987515;28;11141;-65
2023/04/16 03:37:35;;;;;;;;;13.25;12.00;;;;;9.00;80.25;102294.19;4971255;28;11165;-65
2023/04/16 03:40:04;;;;;;;;;21.25;16.50;;;;;8.96;80.75;102287.41;4987532;28;11218;-65
2023/04/16 03:42:31;;;;;;;;;13.75;12.00;;;;;8.99;80.70;102292.47;4983908;28;11272;-66
2023/04/16 03:44:58;;;;;;;;;10.75;10.75;;;;;8.98;81.20;102290.78;4944838;28;11876;-66
2023/04/16 03:47:25;;;;;;;;;14.50;12.00;;;;;8.99;81.04;102295.16;4951689;28;11200;-66
2023/04/16 03:49:55;;;;;;;;;13.00;11.00;;;;;8.96;80.60;102298.16;4951644;28;11306;-65
2023/04/16 03:52:21;;;;;;;;;14.00;12.25;;;;;8.89;81.53;102289.84;4952963;28;11547;-65
2023/04/16 03:54:48;;;;;;;;;12.25;12.25;;;;;8.95;81.86;102297.28;4951510;28;11392;-65
2023/04/16 03:57:26;;;;;;;;;16.00;10.25;;;;;9.00;81.88;102294.19;4944433;28;11504;-65
2023/04/16 03:59:56;;;;;;;;;11.75;10.25;;;;;9.03;80.53;102296.56;4932537;29;11248;-66
2023/04/16 04:02:25;;;;;;;;;13.00;11.50;;;;;9.01;81.30;102295.88;4947741;28;11220;-65
2023/04/16 04:04:52;;;;;;;;;11.00;11.00;;;;;9.02;81.68;102300.25;4951379;28;11141;-67
2023/04/16 04:07:19;;;;;;;;;19.00;16.25;;;;;8.97;81.70;102297.16;4952664;28;11528;-65
2023/04/16 04:09:45;;;;;;;;;19.50;17.00;;;;;8.97;81.42;102297.16;4951112;28;11346;-64
2023/04/16 04:12:13;;;;;;;;;17.50;15.50;;;;;8.99;82.40;102297.84;4951246;28;11590;-65
2023/04/16 04:14:41;;;;;;;;;15.50;15.50;;;;;8.95;81.82;102297.28;4951009;28;12131;-64
2023/04/16 04:17:08;;;;;;;;;17.50;15.25;;;;;8.89;82.08;102292.53;4951135;28;11544;-65
2023/04/16 04:19:34;;;;;;;;;22.50;19.00;;;;;8.84;81.83;102292.13;4942120;28;12032;-65
2023/04/16 04:22:02;;;;;;;;;21.75;19.75;;;;;8.81;82.13;102289.72;4951055;28;11541;-64
2023/04/16 04:24:28;;;;;;;;;18.25;15.25;;;;;8.82;82.68;102297.63;4966791;28;11637;-65
2023/04/16 04:26:56;;;;;;;;;22.00;15.50;;;;;8.81;82.84;102300.47;4950949;28;12290;-65
2023/04/16 04:29:23;;;;;;;;;20.50;19.75;;;;;8.83;82.73;102298.47;4952159;28;11309;-64
2023/04/16 04:31:49;;;;;;;;;14.75;13.25;;;;;8.90;82.94;102305.78;4947394;28;11715;-65
2023/04/16 04:34:16;;;;;;;;;18.25;17.00;;;;;8.89;82.05;102300.59;4934019;29;11652;-64
2023/04/16 04:36:43;;;;;;;;;14.25;14.25;;;;;8.85;82.62;102305.41;4931648;29;12304;-65
2023/04/16 04:39:11;;;;;;;;;20.00;18.50;;;;;8.83;82.12;102303.84;4947529;29;11545;-65
2023/04/16 04:41:39;;;;;;;;;22.75;19.75;;;;;8.82;82.92;102308.38;4931732;29;11701;-65
2023/04/16 04:44:06;;;;;;;;;18.00;15.25;;;;;8.81;82.29;102313.91;4947405;29;11647;-65
2023/04/16 04:46:32;;;;;;;;;15.50;15.00;;;;;8.76;83.07;102305.44;4936606;28;11262;-64
2023/04/16 04:48:59;;;;;;;;;24.75;19.25;;;;;8.80;83.11;102309.53;4935886;29;11656;-65
2023/04/16 04:51:26;;;;;;;;;15.75;14.00;;;;;8.88;83.20;102312.31;4933147;29;11545;-65
2023/04/16 04:53:52;;;;;;;;;13.75;12.25;;;;;8.92;82.94;102316.41;4932794;29;11529;-65
2023/04/16 04:56:19;;;;;;;;;15.00;15.00;;;;;8.91;83.04;102318.25;4947026;29;11543;-67
2023/04/16 04:58:49;;;;;;;;;19.00;15.00;;;;;8.94;83.22;102316.25;4931482;29;11595;-65
2023/04/16 05:01:18;;;;;;;;;15.00;12.25;;;;;8.98;82.68;102323.03;4953114;28;12140;-64
2023/04/16 05:03:45;;;;;;;;;13.25;11.25;;;;;8.99;82.65;102322.84;4951990;28;11207;-66
2023/04/16 05:06:11;;;;;;;;;11.00;7.50;;;;;9.04;83.00;102327.81;4951539;28;11214;-65
2023/04/16 05:08:38;;;;;;;;;13.75;13.00;;;;;9.07;82.63;102330.19;4951774;28;11871;-65
2023/04/16 05:11:04;;;;;;;;;14.25;12.75;;;;;9.05;82.19;102329.50;4951643;28;11217;-65
2023/04/16 05:13:31;;;;;;;;;19.50;16.00;;;;;8.92;82.36;102321.78;4947150;28;11194;-64
2023/04/16 05:15:58;;;;;;;;;14.25;12.25;;;;;8.94;82.73;102330.53;4951107;28;11613;-66
2023/04/16 05:18:25;;;;;;;;;12.25;10.50;;;;;8.94;82.27;102327.00;4955770;28;11148;-65
2023/04/16 05:20:52;;;;;;;;;13.75;12.50;;;;;8.97;83.46;102332.06;4955456;28;11219;-65
2023/04/16 05:23:18;;;;;;;;;18.25;15.00;;;;;8.91;82.75;102333.50;4955695;28;11539;-65
2023/04/16 05:25:44;;;;;;;;;16.00;14.00;;;;;8.82;82.34;102329.00;4954035;28;12274;-65
2023/04/16 05:28:11;;;;;;;;;19.50;14.75;;;;;8.82;82.87;102326.31;4950382;28;11693;-65
2023/04/16 05:30:37;;;;;;;;;13.25;13.25;;;;;8.81;83.08;102330.00;4939020;28;11259;-65
2023/04/16 05:33:04;;;;;;;;;8.25;6.25;;;;;8.79;83.08;102343.59;4936249;29;11350;-64
2023/04/16 05:35:31;;;;;;;;;23.25;18.50;;;;;8.78;83.68;102341.88;4936059;29;11180;-65
2023/04/16 05:37:57;;;;;;;;;18.75;18.00;;;;;8.77;83.45;102328.59;4936187;29;11525;-67
2023/04/16 05:40:23;;;;;;;;;9.00;9.00;;;;;8.83;83.25;102344.13;4936215;29;11658;-66
2023/04/16 05:42:50;;;;;;;;;8.75;8.75;;;;;8.91;84.25;102341.53;4944171;28;11087;-66
2023/04/16 05:45:16;;;;;;;;;17.50;17.50;;;;;8.95;83.41;102344.78;4940281;28;11299;-66
2023/04/16 05:47:43;;;;;;;;;11.75;11.00;;;;;8.96;83.22;102347.34;4936080;29;11239;-65
2023/04/16 05:50:10;;;;;;;;;20.00;16.75;;;;;8.95;83.53;102351.00;4935708;29;11142;-65
2023/04/16 05:52:37;;;;;;;;;23.00;16.50;;;;;8.83;83.06;102357.53;4935899;29;11157;-66
2023/04/16 05:55:04;;;;;;;;;16.00;13.25;;;;;8.85;83.24;102353.72;4935412;29;11356;-66
2023/04/16 05:57:31;;;;;;;;;9.00;7.00;;;;;8.89;83.36;102349.75;4935647;29;11552;-66
2023/04/16 05:59:58;;;;;;;;;16.00;14.25;;;;;8.90;83.50;102354.13;4942592;28;11191;-66
2023/04/16 06:02:24;;;;;;;;;11.50;11.00;;;;;8.92;83.42;102356.69;4947341;28;11614;-66
2023/04/16 06:04:51;;;;;;;;;18.00;14.25;;;;;8.86;83.17;102360.78;4935592;29;11379;-66
2023/04/16 06:07:17;;;;;;;;;16.75;15.25;;;;;8.88;83.23;102360.66;4935564;29;11331;-66
2023/04/16 06:09:44;;;;;;;;;22.75;17.50;;;;;8.79;83.58;102357.00;4937554;28;11379;-66
2023/04/16 06:12:11;;;;;;;;;19.00;15.75;;;;;8.75;83.17;102363.66;4948963;28;11544;-66
2023/04/16 06:14:37;;;;;;;;;17.50;15.00;;;;;8.77;84.25;102368.88;4938903;28;11308;-66
2023/04/16 06:17:03;;;;;;;;;11.00;11.00;;;;;8.81;83.87;102371.13;4936000;29;11517;-66
2023/04/16 06:19:30;;;;;;;;;17.50;16.00;;;;;8.88;83.98;102366.88;4935302;29;11117;-66
2023/04/16 06:21:56;;;;;;;;;14.00;11.25;;;;;8.84;83.57;102365.47;4935502;28;11196;-66
2023/04/16 06:24:23;;;;;;;;;17.75;17.25;;;;;8.84;83.57;102362.78;4934332;29;11241;-66
2023/04/16 06:26:49;;;;;;;;;16.75;14.50;;;;;8.84;83.95;102378.06;4935317;29;11522;-65
2023/04/16 06:29:16;;;;;;;;;15.50;12.00;;;;;8.85;83.76;102377.91;4935354;29;11318;-66
2023/04/16 06:31:42;;;;;;;;;16.25;15.00;;;;;8.85;84.06;102379.75;4941275;29;11196;-66
2023/04/16 06:34:09;;;;;;;;;14.25;11.50;;;;;8.86;84.05;102382.28;4939304;28;11385;-66
2023/04/16 06:36:36;;;;;;;;;16.50;14.75;;;;;8.82;84.04;102380.88;4954456;28;11285;-66
2023/04/16 06:39:03;;;;;;;;;16.25;13.50;;;;;8.80;83.56;102380.19;4944928;28;11544;-66
2023/04/16 06:41:29;;;;;;;;;18.75;16.75;;;;;8.79;83.74;102389.25;4943285;28;11241;-66
2023/04/16 06:43:56;;;;;;;;;13.00;11.00;;;;;8.83;83.74;102390.63;4952173;28;11552;-66
2023/04/16 06:46:22;;;;;;;;;17.25;16.00;;;;;8.87;83.75;102383.13;4941467;28;11239;-66
2023/04/16 06:48:49;;;;;;;;;16.50;15.75;;;;;8.83;83.17;102389.75;4953991;28;12324;-66
2023/04/16 06:51:15;;;;;;;;;19.50;15.50;;;;;8.84;84.04;102395.00;4953595;28;11254;-66
2023/04/16 06:53:42;;;;;;;;;26.75;21.00;;;;;8.83;83.85;102392.44;4953649;28;11188;-66
2023/04/16 06:56:08;;;;;;;;;15.75;13.25;;;;;8.86;84.12;102398.38;4953547;28;12231;-66
2023/04/16 06:58:35;;;;;;;;;17.50;15.00;;;;;8.89;83.56;102392.72;4949836;28;11255;-66
2023/04/16 07:01:01;;;;;;;;;18.25;18.25;;;;;8.89;84.01;102400.78;4940917;28;11524;-66
2023/04/16 07:03:28;;;;;;;;;15.75;15.25;;;;;8.87;83.74;102401.91;4936472;29;11280;-65
2023/04/16 07:05:55;;;;;;;;;16.50;14.25;;;;;8.83;83.29;102395.13;4934104;29;11566;-66
2023/04/16 07:08:21;;;;;;;;;16.50;13.25;;;;;8.83;84.05;102392.44;4934323;28;11084;-66
2023/04/16 07:10:48;;;;;;;;;24.00;18.00;;;;;8.84;83.87;102402.22;4935984;28;11244;-66
2023/04/16 07:13:14;;;;;;;;;17.50;11.25;;;;;8.89;84.44;102408.84;4936326;28;11556;-64
2023/04/16 07:15:41;;;;;;;;;23.75;16.50;;;;;8.88;83.41;102406.31;4951002;28;11251;-65
2023/04/16 07:18:08;;;;;;;;;19.00;15.75;;;;;8.83;84.04;102403.19;4947907;28;11652;-65
2023/04/16 07:20:35;;;;;;;;;16.50;11.50;;;;;8.83;84.07;102406.75;4937119;28;11133;-65
2023/04/16 07:23:01;;;;;;;;;14.25;13.25;;;;;8.84;84.21;102403.06;4953071;28;11227;-65
2023/04/16 07:25:28;;;;;;;;;17.25;13.00;;;;;8.89;83.77;102405.31;4951659;28;11538;-65
2023/04/16 07:27:54;;;;;;;;;19.75;10.50;;;;;8.79;83.49;102409.84;4953405;28;11305;-65
2023/04/16 07:30:20;;;;;;;;;13.75;12.75;;;;;8.80;84.33;102409.72;4953414;28;11194;-65
2023/04/16 07:32:47;;;;;;;;;12.25;12.25;;;;;8.86;84.09;102416.34;4950839;28;11141;-65
2023/04/16 07:35:13;;;;;;;;;14.75;11.75;;;;;8.89;83.86;102410.69;4945246;28;10938;-65
2023/04/16 07:37:40;;;;;;;;;10.00;9.50;;;;;8.89;83.54;102422.28;4942829;28;10943;-65
2023/04/16 07:40:08;;;;;;;;;13.50;12.00;;;;;8.85;83.43;102420.88;4970362;28;11050;-65
2023/04/16 07:42:35;;;;;;;;;10.75;9.00;;;;;8.83;84.02;102419.31;4951265;28;11063;-65
2023/04/16 07:45:01;;;;;;;;;8.75;8.00;;;;;8.85;84.57;102428.91;4971186;28;11056;-65
2023/04/16 07:47:27;;;;;;;;;15.75;12.75;;;;;8.91;83.91;102427.47;4971863;28;10836;-64
2023/04/16 07:49:54;;;;;;;;;19.25;14.50;;;;;8.93;83.80;102428.19;4965067;28;11030;-64
2023/04/16 07:52:20;;;;;;;;;15.00;11.00;;;;;8.94;84.25;102434.41;4950666;28;11247;-65
2023/04/16 07:54:47;;;;;;;;;17.50;15.00;;;;;8.88;83.75;102436.69;4950981;28;11713;-65
2023/04/16 07:57:13;;;;;;;;;14.75;11.75;;;;;8.85;83.91;102436.97;4956208;28;11197;-65
2023/04/16 07:59:40;;;;;;;;;17.50;14.00;;;;;8.85;84.47;102436.97;4968737;28;11871;-65
2023/04/16 08:02:12;;;;;;;;;14.00;13.00;;;;;8.84;83.62;102435.28;4957543;28;11180;-65
2023/04/16 08:04:40;;;;;;;;;12.00;12.00;;;;;8.78;84.42;102441.22;4955361;28;11059;-65
2023/04/16 08:07:07;;;;;;;;;12.50;11.00;;;;;8.81;84.69;102443.63;4959518;28;11116;-65
2023/04/16 08:09:34;;;;;;;;;11.75;10.00;;;;;8.84;84.04;102435.28;4951807;28;11062;-65
2023/04/16 08:12:02;;;;;;;;;16.25;14.75;;;;;8.80;84.38;102438.41;4971764;28;11389;-66
2023/04/16 08:14:28;;;;;;;;;14.25;14.00;;;;;8.88;85.19;102435.84;4953431;28;11225;-65
2023/04/16 08:16:55;;;;;;;;;19.00;17.50;;;;;8.94;84.46;102447.84;4957490;28;11224;-65
2023/04/16 08:19:21;;;;;;;;;17.50;16.75;;;;;8.94;83.94;102445.16;4966396;28;11900;-66
2023/04/16 08:21:48;;;;;;;;;18.00;14.00;;;;;8.94;84.42;102454.06;4970963;28;11250;-66
2023/04/16 08:24:14;;;;;;;;;12.25;12.25;;;;;8.96;84.17;102441.34;4964247;28;11234;-65
2023/04/16 08:26:41;;;;;;;;;20.25;16.50;;;;;8.97;84.20;102455.63;4973340;28;11744;-65
2023/04/16 08:29:07;;;;;;;;;16.00;14.50;;;;;8.94;83.63;102455.91;4970358;28;11582;-65
2023/04/16 08:31:34;;;;;;;;;13.00;10.00;;;;;8.99;84.91;102451.78;4956482;28;11372;-65
2023/04/16 08:34:00;;;;;;;;;16.50;15.50;;;;;9.01;84.16;102457.88;4941974;28;11016;-65
2023/04/16 08:36:27;;;;;;;;;15.50;15.00;;;;;9.01;84.27;102457.03;4944826;28;11167;-66
2023/04/16 08:38:53;;;;;;;;;15.00;14.75;;;;;9.06;84.05;102460.97;4978851;28;12012;-66
2023/04/16 08:41:21;;;;;;;;;16.25;13.25;;;;;9.14;84.51;102463.78;4949614;28;11294;-64
2023/04/16 08:43:50;;;;;;;;;14.75;12.75;;;;;9.19;83.44;102470.56;4942917;28;11056;-65
2023/04/16 08:46:21;;;;;;;;;12.25;12.25;;;;;9.11;83.99;102473.97;4959475;28;11348;-64
2023/04/16 08:48:48;;;;;;;;;15.75;10.75;;;;;9.15;83.96;102476.25;4951954;28;11160;-65
2023/04/16 08:51:17;;;;;;;;;14.50;12.50;;;;;9.15;83.81;102480.72;4950914;28;11890;-65
2023/04/16 08:54:01;;;;;;;;;16.00;13.50;;;;;9.16;83.15;102490.50;4961025;28;11150;-66
2023/04/16 08:56:30;;;;;;;;;12.00;11.50;;;;;9.09;83.12;102479.50;4966020;28;10980;-65
2023/04/16 08:58:59;;;;;;;;;13.00;11.25;;;;;9.05;83.52;102487.97;4963561;28;11101;-66
2023/04/16 09:01:27;;;;;;;;;17.25;10.75;;;;;9.03;83.62;102490.78;4948761;28;11053;-65
2023/04/16 09:03:54;;;;;;;;;9.00;9.00;;;;;9.06;84.15;102498.56;4949844;28;11305;-66
2023/04/16 09:06:21;;;;;;;;;10.00;10.00;;;;;9.11;84.22;102495.44;4935610;29;11037;-66
2023/04/16 09:08:48;;;;;;;;;12.00;11.25;;;;;9.09;84.45;102482.19;4947078;28;11010;-66
2023/04/16 09:11:17;;;;;;;;;13.75;12.75;;;;;9.13;83.57;102498.84;4952141;28;11261;-66
2023/04/16 09:13:45;;;;;;;;;9.50;9.50;;;;;9.13;84.03;102488.09;4949732;28;12294;-66
2023/04/16 09:16:13;;;;;;;;;15.75;11.00;;;;;9.19;83.81;102494.72;4953758;28;11053;-66
2023/04/16 09:18:40;;;;;;;;;19.00;15.00;;;;;9.16;83.85;102501.25;4959235;28;11989;-64
2023/04/16 09:21:09;;;;;;;;;15.00;15.00;;;;;9.14;83.95;102490.63;4962212;28;11126;-64
2023/04/16 09:23:37;;;;;;;;;12.50;12.50;;;;;9.16;84.15;102496.72;4959085;28;11278;-65
2023/04/16 09:26:04;;;;;;;;;19.75;18.25;;;;;9.22;83.83;102491.75;4957105;28;11778;-65
2023/04/16 09:28:57;;;;;;;;;12.50;12.50;;;;;9.29;84.03;102499.09;4951018;28;11231;-65
2023/04/16 09:31:24;;;;;;;;;13.75;13.50;;;;;9.29;83.55;102507.16;4937064;28;11816;-65
2023/04/16 09:34:01;;;;;;;;;15.50;14.50;;;;;9.22;83.39;102497.97;4949569;28;11063;-65
2023/04/16 09:36:27;;;;;;;;;17.00;12.00;;;;;9.26;83.43;102507.44;4953073;28;11032;-65
2023/04/16 09:38:54;;;;;;;;;13.25;12.50;;;;;9.33;83.79;102510.41;4955447;28;11128;-64
2023/04/16 09:41:26;;;;;;;;;16.50;11.50;;;;;9.38;82.96;102511.66;4962241;28;11144;-65
2023/04/16 09:43:56;;;;;;;;;12.00;12.00;;;;;9.39;82.76;102515.19;4964806;28;11197;-65
2023/04/16 09:46:24;;;;;;;;;11.75;9.00;;;;;9.38;82.72;102525.09;4937202;28;11148;-65
2023/04/16 09:48:50;;;;;;;;;20.75;15.00;;;;;9.34;83.12;102514.78;4947031;28;11821;-65
2023/04/16 09:51:17;;;;;;;;;11.25;11.25;;;;;9.36;83.55;102523.56;4959767;28;11113;-65
2023/04/16 09:53:44;;;;;;;;;14.00;14.00;;;;;9.36;83.15;102519.03;4949796;28;11185;-65
2023/04/16 09:56:11;;;;;;;;;13.75;13.75;;;;;9.35;83.24;102520.00;4950107;28;11145;-65
2023/04/16 09:58:38;;;;;;;;;14.25;13.50;;;;;9.35;83.18;102522.69;4947502;28;11087;-65
2023/04/16 10:01:06;;;;;;;;;16.00;12.00;;;;;9.36;83.32;102521.72;4959640;28;11861;-65
2023/04/16 10:03:34;;;;;;;;;12.25;12.25;;;;;9.34;83.24;102518.31;4937235;29;10821;-65
2023/04/16 10:06:17;;;;;;;;;9.50;8.75;;;;;9.37;83.06;102527.94;4934199;29;10970;-65
2023/04/16 10:08:51;;;;;;;;;14.75;13.00;;;;;9.38;83.52;102524.25;4940666;28;11147;-66
2023/04/16 10:11:19;;;;;;;;;14.75;14.75;;;;;9.41;83.72;102523.97;4962591;28;11028;-66
2023/04/16 10:13:46;;;;;;;;;11.00;11.00;;;;;9.43;83.63;102526.50;4948075;28;11036;-66
2023/04/16 10:16:12;;;;;;;;;11.00;10.25;;;;;9.43;83.43;102535.41;4957789;28;10984;-66
2023/04/16 10:18:42;;;;;;;;;14.75;12.25;;;;;9.48;83.31;102532.28;4978007;28;11985;-66
2023/04/16 10:21:14;;;;;;;;;13.75;11.00;;;;;9.48;83.64;102543.03;4960914;28;11034;-65
2023/04/16 10:23:42;;;;;;;;;11.50;11.50;;;;;9.54;83.65;102543.31;4952556;28;11702;-65
2023/04/16 10:26:08;;;;;;;;;8.75;8.00;;;;;9.57;83.45;102539.50;4951244;28;10996;-65
2023/04/16 10:28:35;;;;;;;;;16.50;11.50;;;;;9.62;83.15;102545.28;4954307;28;10865;-65
2023/04/16 10:31:06;;;;;;;;;14.50;14.50;;;;;9.51;83.08;102540.06;4963569;28;11071;-65
2023/04/16 10:33:35;;;;;;;;;16.75;15.75;;;;;9.45;83.19;102540.66;4953073;28;11696;-65
2023/04/16 10:36:13;;;;;;;;;15.00;13.00;;;;;9.45;83.16;102546.88;4950851;28;10985;-66
2023/04/16 10:38:44;;;;;;;;;17.25;14.00;;;;;9.48;83.75;102548.41;4934172;29;11012;-66
2023/04/16 10:41:11;;;;;;;;;22.75;18.50;;;;;9.46;83.28;102553.09;4934484;29;11029;-65
2023/04/16 10:43:43;;;;;;;;;14.75;13.00;;;;;9.51;83.47;102540.06;4958598;28;11052;-66
2023/04/16 10:46:30;;;;;;;;;18.25;15.00;;;;;9.42;82.92;102549.84;4948811;28;10904;-65
2023/04/16 10:49:01;;;;;;;;;16.75;16.25;;;;;9.45;83.75;102546.03;4953022;28;11076;-66
2023/04/16 10:51:35;;;;;;;;;13.00;13.00;;;;;9.52;83.50;102547.13;4952326;28;11172;-66
2023/04/16 10:54:07;;;;;;;;;19.75;14.00;;;;;9.54;82.95;102550.53;4963562;28;10827;-66
2023/04/16 10:56:35;;;;;;;;;16.75;15.50;;;;;9.54;83.77;102543.31;4958189;28;11069;-66
2023/04/16 10:59:06;;;;;;;;;20.75;15.75;;;;;9.56;83.16;102544.03;4955109;28;11243;-67
2023/04/16 11:01:40;;;;;;;;;16.75;14.75;;;;;9.61;83.67;102546.28;4961627;28;11172;-63
2023/04/16 11:04:19;;;;;;;;;17.50;16.25;;;;;9.66;83.31;102538.59;4960926;28;10984;-64
2023/04/16 11:07:15;;;;;;;;;14.00;12.50;;;;;9.71;83.09;102541.69;4962354;28;11078;-66
2023/04/16 11:10:04;;;;;;;;;15.50;15.00;;;;;9.79;83.30;102541.81;4961957;28;10946;-66
2023/04/16 11:12:39;;;;;;;;;24.50;19.75;;;;;9.82;83.36;102533.44;4961557;28;11159;-66
2023/04/16 11:15:10;;;;;;;;;21.25;19.50;;;;;9.85;83.05;102535.84;4977606;28;11281;-66
2023/04/16 11:17:39;;;;;;;;;17.00;17.00;;;;;9.87;82.37;102535.69;4972675;28;11199;-66
2023/04/16 11:20:08;;;;;;;;;16.00;15.50;;;;;9.85;82.23;102529.63;4954134;28;11761;-69
2023/04/16 11:22:53;;;;;;;;;18.25;15.75;;;;;9.83;82.32;102540.53;4962427;28;11204;-66
2023/04/16 11:25:28;;;;;;;;;15.75;11.75;;;;;9.84;82.73;102539.56;4968494;28;10921;-66